createdAt,value
2019-01-18T00:01:47.271Z,180.47
2019-01-18T00:04:13.198Z,178.77
2019-01-18T00:06:39.297Z,180.70
2019-01-18T00:09:05.478Z,178.70
2019-01-18T00:11:31.490Z,184.03
2019-01-18T00:13:57.456Z,189.70
2019-01-18T00:16:23.436Z,184.67
2019-01-18T00:18:49.551Z,179.33
2019-01-18T00:21:16.011Z,191.23
2019-01-18T00:23:41.977Z,194.13
2019-01-18T00:26:07.861Z,195.10
2019-01-18T00:28:33.764Z,219.27
2019-01-18T00:30:59.685Z,194.00
2019-01-18T00:33:25.676Z,166.73
2019-01-18T00:35:51.591Z,202.07
2019-01-18T00:38:17.568Z,186.33
2019-01-18T00:40:43.513Z,172.97
2019-01-18T00:43:09.545Z,190.37
2019-01-18T00:45:35.447Z,167.93
2019-01-18T00:48:01.401Z,188.97
2019-01-18T00:50:27.266Z,188.33
2019-01-18T00:52:53.146Z,192.03
2019-01-18T00:55:19.031Z,193.90
2019-01-18T00:57:45.021Z,185.67
2019-01-18T01:00:16.966Z,190.90
2019-01-18T01:02:42.852Z,197.50
2019-01-18T01:05:08.755Z,182.33
2019-01-18T01:07:34.629Z,189.80
2019-01-18T01:10:00.496Z,187.37
2019-01-18T01:12:26.367Z,208.23
2019-01-18T01:14:52.226Z,197.20
2019-01-18T01:17:18.093Z,201.23
2019-01-18T01:19:44.198Z,187.97
2019-01-18T01:22:11.590Z,202.60
2019-01-18T01:24:37.462Z,188.40
2019-01-18T01:27:03.338Z,195.30
2019-01-18T01:29:29.222Z,179.07
2019-01-18T01:31:55.211Z,170.00
2019-01-18T01:34:21.069Z,181.80
2019-01-18T01:36:46.959Z,196.73
2019-01-18T01:39:12.839Z,171.43
2019-01-18T01:41:38.695Z,186.70
2019-01-18T01:44:04.582Z,164.23
2019-01-18T01:46:30.563Z,172.27
2019-01-18T01:48:56.434Z,174.73
2019-01-18T01:51:22.326Z,179.37
2019-01-18T01:53:48.322Z,172.70
2019-01-18T01:56:14.293Z,157.07
2019-01-18T01:58:40.170Z,154.07
2019-01-18T02:01:06.069Z,152.43
2019-01-18T02:03:31.941Z,145.83
2019-01-18T02:05:57.815Z,164.57
2019-01-18T02:08:23.687Z,160.43
2019-01-18T02:10:49.591Z,156.93
2019-01-18T02:13:15.467Z,176.57
2019-01-18T02:15:41.336Z,171.70
2019-01-18T02:18:07.242Z,165.00
2019-01-18T02:20:33.226Z,184.60
2019-01-18T02:22:59.665Z,200.10
2019-01-18T02:25:25.531Z,196.83
2019-01-18T02:27:51.516Z,201.27
2019-01-18T02:30:24.215Z,185.30
2019-01-18T02:32:50.078Z,184.50
2019-01-18T02:35:16.012Z,193.57
2019-01-18T02:37:41.872Z,194.90
2019-01-18T02:40:09.839Z,186.03
2019-01-18T02:42:35.735Z,183.77
2019-01-18T02:45:02.710Z,207.63
2019-01-18T02:47:28.713Z,201.70
2019-01-18T02:49:54.640Z,227.07
2019-01-18T02:52:20.522Z,234.13
2019-01-18T02:54:46.444Z,220.17
2019-01-18T02:57:12.257Z,212.57
2019-01-18T02:59:38.134Z,210.53
2019-01-18T03:02:04.084Z,209.57
2019-01-18T03:04:29.976Z,235.43
2019-01-18T03:06:55.834Z,225.27
2019-01-18T03:09:21.729Z,228.67
2019-01-18T03:11:47.719Z,228.70
2019-01-18T03:14:13.594Z,223.70
2019-01-18T03:16:39.480Z,230.97
2019-01-18T03:19:05.396Z,243.17
2019-01-18T03:21:31.581Z,211.00
2019-01-18T03:23:57.841Z,241.87
2019-01-18T03:26:23.781Z,246.13
2019-01-18T03:28:49.734Z,272.03
2019-01-18T03:31:15.723Z,245.77
2019-01-18T03:33:41.600Z,295.00
2019-01-18T03:36:07.487Z,232.57
2019-01-18T03:38:33.359Z,290.47
2019-01-18T03:40:59.231Z,279.93
2019-01-18T03:43:25.132Z,296.20
2019-01-18T03:45:51.022Z,245.80
2019-01-18T03:48:16.866Z,306.30
2019-01-18T03:50:42.748Z,262.20
2019-01-18T03:53:08.618Z,250.97
2019-01-18T03:55:34.598Z,294.33
2019-01-18T03:58:00.495Z,297.83
2019-01-18T04:00:27.271Z,272.23
2019-01-18T04:02:53.268Z,299.33
2019-01-18T04:05:19.178Z,301.87
2019-01-18T04:07:45.085Z,331.80
2019-01-18T04:10:16.587Z,294.47
2019-01-18T04:12:42.472Z,256.50
2019-01-18T04:15:11.120Z,262.97
2019-01-18T04:17:37.018Z,267.30
2019-01-18T04:20:06.443Z,251.07
2019-01-18T04:22:32.822Z,245.97
2019-01-18T04:24:59.056Z,257.47
2019-01-18T04:27:25.042Z,267.57
2019-01-18T04:29:50.914Z,257.67
2019-01-18T04:32:16.791Z,220.33
2019-01-18T04:34:42.794Z,252.87
2019-01-18T04:37:08.642Z,221.27
2019-01-18T04:39:34.620Z,220.53
2019-01-18T04:42:00.482Z,215.97
2019-01-18T04:44:26.359Z,216.87
2019-01-18T04:46:52.238Z,242.50
2019-01-18T04:49:18.127Z,200.23
2019-01-18T04:51:43.979Z,224.87
2019-01-18T04:54:09.881Z,277.40
2019-01-18T04:56:35.791Z,241.83
2019-01-18T04:59:01.675Z,219.20
2019-01-18T05:01:27.538Z,218.27
2019-01-18T05:03:53.418Z,201.33
2019-01-18T05:06:19.282Z,198.13
2019-01-18T05:08:45.148Z,182.60
2019-01-18T05:11:11.079Z,211.03
2019-01-18T05:13:36.953Z,185.57
2019-01-18T05:16:04.728Z,191.50
2019-01-18T05:18:30.612Z,264.90
2019-01-18T05:20:56.515Z,206.47
2019-01-18T05:23:22.732Z,205.50
2019-01-18T05:25:48.857Z,193.77
2019-01-18T05:28:14.714Z,188.10
2019-01-18T05:30:47.295Z,206.67
2019-01-18T05:33:08.362Z,195.07
2019-01-18T05:35:34.236Z,280.47
2019-01-18T05:38:00.198Z,192.27
2019-01-18T05:40:26.056Z,230.37
2019-01-18T05:42:51.943Z,249.10
2019-01-18T05:45:19.621Z,214.07
2019-01-18T05:47:45.613Z,233.43
2019-01-18T05:50:19.254Z,204.37
2019-01-18T05:52:45.216Z,176.40
2019-01-18T05:55:11.322Z,178.87
2019-01-18T05:57:37.213Z,211.23
2019-01-18T06:00:06.997Z,222.00
2019-01-18T06:02:32.872Z,189.00
2019-01-18T06:04:59.458Z,191.00
2019-01-18T06:07:25.339Z,204.70
2019-01-18T06:09:51.224Z,218.50
2019-01-18T06:12:17.111Z,180.33
2019-01-18T06:14:42.968Z,211.73
2019-01-18T06:17:09.048Z,201.63
2019-01-18T06:19:34.925Z,204.27
2019-01-18T06:22:00.923Z,214.13
2019-01-18T06:24:26.928Z,211.97
2019-01-18T06:26:53.315Z,176.83
2019-01-18T06:29:19.217Z,190.37
2019-01-18T06:31:45.116Z,197.10
2019-01-18T06:34:11.001Z,205.00
2019-01-18T06:36:36.888Z,206.43
2019-01-18T06:39:04.782Z,240.97
2019-01-18T06:41:32.162Z,218.30
2019-01-18T06:43:58.075Z,223.57
2019-01-18T06:46:24.349Z,202.40
2019-01-18T06:48:50.819Z,193.93
2019-01-18T06:51:16.734Z,202.70
2019-01-18T06:53:42.633Z,218.37
2019-01-18T06:56:08.494Z,210.33
2019-01-18T06:58:34.442Z,202.87
2019-01-18T07:01:00.323Z,237.43
2019-01-18T07:03:26.246Z,241.33
2019-01-18T07:05:52.115Z,252.73
2019-01-18T07:08:18.009Z,268.83
2019-01-18T07:10:43.877Z,266.43
2019-01-18T07:13:09.835Z,304.93
2019-01-18T07:15:35.744Z,273.83
2019-01-18T07:18:01.634Z,229.20
2019-01-18T07:20:27.524Z,289.63
2019-01-18T07:22:53.408Z,268.73
2019-01-18T07:25:25.228Z,229.97
2019-01-18T07:27:52.186Z,221.70
2019-01-18T07:30:21.858Z,223.80
2019-01-18T07:32:47.732Z,209.13
2019-01-18T07:35:13.626Z,208.63
2019-01-18T07:37:39.502Z,212.47
2019-01-18T07:40:07.387Z,216.07
2019-01-18T07:42:33.646Z,213.07
2019-01-18T07:44:59.537Z,190.83
2019-01-18T07:47:25.747Z,195.37
2019-01-18T07:49:51.627Z,183.07
2019-01-18T07:52:17.511Z,192.17
2019-01-18T07:54:43.407Z,188.37
2019-01-18T07:57:09.295Z,197.87
2019-01-18T07:59:35.210Z,179.03
2019-01-18T08:02:01.124Z,183.63
2019-01-18T08:04:26.973Z,158.00
2019-01-18T08:06:52.885Z,158.60
2019-01-18T08:09:18.768Z,161.30
2019-01-18T08:11:44.733Z,149.53
2019-01-18T08:14:10.622Z,138.93
2019-01-18T08:16:36.481Z,143.53
2019-01-18T08:19:02.373Z,143.30
2019-01-18T08:21:28.268Z,147.17
2019-01-18T08:23:54.230Z,143.77
2019-01-18T08:26:20.538Z,142.53
2019-01-18T08:28:48.553Z,144.13
2019-01-18T08:31:14.606Z,146.80
2019-01-18T08:33:41.772Z,138.10
2019-01-18T08:36:07.661Z,138.33
2019-01-18T08:38:33.577Z,136.80
2019-01-18T08:40:59.449Z,132.47
2019-01-18T08:43:25.439Z,116.40
2019-01-18T08:45:51.343Z,107.53
2019-01-18T08:48:17.214Z,112.13
2019-01-18T08:50:43.099Z,113.43
2019-01-18T08:53:09.073Z,126.03
2019-01-18T08:55:34.977Z,116.77
2019-01-18T08:58:00.870Z,112.93
2019-01-18T09:00:31.003Z,111.77
2019-01-18T09:02:56.971Z,112.03
2019-01-18T09:05:24.792Z,114.70
2019-01-18T09:07:50.683Z,108.47
2019-01-18T09:10:19.573Z,116.03
2019-01-18T09:12:45.539Z,119.10
2019-01-18T09:15:12.413Z,113.90
2019-01-18T09:17:39.815Z,108.30
2019-01-18T09:20:15.502Z,105.27
2019-01-18T09:22:41.379Z,110.87
2019-01-18T09:25:07.252Z,113.50
2019-01-18T09:27:33.602Z,120.73
2019-01-18T09:30:00.472Z,115.20
2019-01-18T09:32:26.315Z,123.40
2019-01-18T09:34:52.348Z,126.77
2019-01-18T09:37:18.215Z,126.47
2019-01-18T09:39:45.439Z,123.73
2019-01-18T09:42:11.523Z,118.80
2019-01-18T09:44:37.410Z,113.33
2019-01-18T09:47:03.248Z,113.03
2019-01-18T09:49:29.286Z,107.67
2019-01-18T09:51:55.227Z,105.43
2019-01-18T09:54:21.188Z,105.47
2019-01-18T09:56:47.074Z,106.27
2019-01-18T09:59:12.940Z,111.57
2019-01-18T10:01:38.809Z,104.40
2019-01-18T10:04:04.715Z,111.33
2019-01-18T10:06:30.595Z,98.93
2019-01-18T10:08:56.456Z,103.73
2019-01-18T10:11:22.384Z,103.60
2019-01-18T10:13:48.290Z,107.17
2019-01-18T10:16:14.278Z,106.27
2019-01-18T10:18:40.152Z,105.07
2019-01-18T10:21:06.023Z,108.63
2019-01-18T10:23:31.999Z,110.70
2019-01-18T10:25:57.949Z,115.30
2019-01-18T10:28:24.510Z,108.90
2019-01-18T10:30:51.672Z,104.00
2019-01-18T10:33:17.533Z,107.50
2019-01-18T10:35:43.779Z,114.60
2019-01-18T10:38:09.647Z,108.53
2019-01-18T10:40:35.640Z,111.47
2019-01-18T10:43:01.579Z,110.50
2019-01-18T10:45:27.443Z,108.03
2019-01-18T10:47:53.292Z,112.80
2019-01-18T10:50:22.525Z,111.73
2019-01-18T10:52:48.370Z,103.80
2019-01-18T10:55:14.358Z,108.77
2019-01-18T10:57:40.326Z,105.03
2019-01-18T11:00:12.767Z,97.67
2019-01-18T11:02:38.612Z,106.40
2019-01-18T11:05:07.498Z,106.30
2019-01-18T11:07:33.397Z,104.60
2019-01-18T11:09:59.264Z,110.53
2019-01-18T11:12:25.173Z,100.87
2019-01-18T11:14:51.048Z,100.23
2019-01-18T11:17:16.955Z,96.90
2019-01-18T11:19:42.860Z,98.60
2019-01-18T11:22:08.756Z,99.10
2019-01-18T11:24:34.733Z,97.20
2019-01-18T11:27:00.612Z,103.60
2019-01-18T11:29:27.051Z,96.93
2019-01-18T11:31:54.053Z,100.70
2019-01-18T11:34:20.057Z,95.00
2019-01-18T11:36:46.017Z,99.40
2019-01-18T11:39:11.933Z,93.47
2019-01-18T11:41:37.825Z,94.93
2019-01-18T11:44:04.308Z,91.50
2019-01-18T11:46:30.203Z,94.70
2019-01-18T11:48:56.178Z,90.90
2019-01-18T11:51:22.084Z,91.63
2019-01-18T11:53:47.959Z,97.50
2019-01-18T11:56:13.829Z,93.93
2019-01-18T11:58:39.738Z,88.20
2019-01-18T12:01:05.679Z,87.50
2019-01-18T12:03:31.482Z,81.90
2019-01-18T12:05:57.377Z,77.17
2019-01-18T12:08:23.264Z,67.97
2019-01-18T12:10:49.145Z,53.57
2019-01-18T12:13:14.997Z,55.27
2019-01-18T12:15:40.883Z,45.77
2019-01-18T12:18:06.799Z,49.47
2019-01-18T12:20:33.364Z,49.60
2019-01-18T12:22:59.342Z,50.90
2019-01-18T12:25:25.225Z,53.23
2019-01-18T12:27:51.086Z,56.03
2019-01-18T12:30:27.484Z,62.00
2019-01-18T12:32:55.050Z,69.07
2019-01-18T12:35:20.948Z,62.53
2019-01-18T12:37:46.798Z,64.60
2019-01-18T12:40:12.792Z,69.23
2019-01-18T12:42:58.522Z,68.43
2019-01-18T12:45:24.393Z,61.57
2019-01-18T12:47:50.254Z,62.73
2019-01-18T12:50:25.705Z,54.97
2019-01-18T12:52:51.577Z,49.63
2019-01-18T12:55:17.457Z,44.77
2019-01-18T12:57:43.395Z,47.00
2019-01-18T13:00:18.619Z,52.23
2019-01-18T13:02:44.485Z,55.90
2019-01-18T13:05:15.778Z,50.00
2019-01-18T13:07:41.857Z,50.23
2019-01-18T13:10:12.286Z,49.17
2019-01-18T13:12:36.104Z,47.13
2019-01-18T13:15:08.263Z,48.63
2019-01-18T13:17:34.192Z,46.97
2019-01-18T13:20:00.095Z,48.40
2019-01-18T13:22:26.277Z,47.97
2019-01-18T13:24:52.154Z,50.33
2019-01-18T13:27:18.000Z,50.47
2019-01-18T13:29:43.851Z,53.33
2019-01-18T13:32:09.842Z,53.20
2019-01-18T13:34:36.631Z,52.33
2019-01-18T13:37:02.704Z,50.50
2019-01-18T13:39:28.596Z,55.00
2019-01-18T13:41:54.484Z,50.77
2019-01-18T13:44:21.340Z,48.40
2019-01-18T13:46:47.229Z,48.13
2019-01-18T13:49:13.188Z,43.93
2019-01-18T13:51:39.111Z,41.17
2019-01-18T13:54:04.997Z,35.97
2019-01-18T13:56:30.862Z,36.93
2019-01-18T13:58:56.765Z,33.37
2019-01-18T14:01:22.613Z,30.93
2019-01-18T14:03:48.472Z,30.07
2019-01-18T14:06:14.361Z,27.23
2019-01-18T14:08:42.231Z,28.50
2019-01-18T14:11:08.060Z,28.13
2019-01-18T14:13:37.416Z,27.17
2019-01-18T14:16:01.712Z,26.53
2019-01-18T14:18:27.586Z,24.50
2019-01-18T14:20:53.500Z,25.77
2019-01-18T14:23:19.344Z,24.97
2019-01-18T14:25:45.207Z,25.13
2019-01-18T14:28:11.259Z,25.17
2019-01-18T14:30:37.149Z,25.10
2019-01-18T14:33:03.150Z,25.37
2019-01-18T14:35:29.933Z,22.50
2019-01-18T14:37:55.839Z,24.30
2019-01-18T14:40:21.699Z,23.23
2019-01-18T14:42:49.870Z,23.03
2019-01-18T14:45:19.436Z,22.37
2019-01-18T14:47:45.410Z,23.47
2019-01-18T14:50:15.169Z,25.63
2019-01-18T14:52:41.086Z,22.50
2019-01-18T14:55:06.973Z,22.00
2019-01-18T14:57:32.831Z,23.77
2019-01-18T14:59:58.754Z,26.30
2019-01-18T15:02:24.598Z,23.67
2019-01-18T15:04:50.468Z,24.53
2019-01-18T15:07:16.323Z,21.33
2019-01-18T15:09:42.204Z,22.90
2019-01-18T15:12:08.088Z,22.83
2019-01-18T15:14:33.972Z,19.73
2019-01-18T15:16:59.873Z,20.50
2019-01-18T15:19:25.733Z,17.57
2019-01-18T15:21:51.607Z,18.63
2019-01-18T15:24:17.487Z,16.30
2019-01-18T15:26:43.372Z,19.13
2019-01-18T15:29:09.239Z,17.57
2019-01-18T15:31:35.121Z,17.47
2019-01-18T15:34:01.092Z,16.57
2019-01-18T15:36:27.382Z,18.87
2019-01-18T15:38:53.239Z,18.20
2019-01-18T15:41:19.148Z,17.37
2019-01-18T15:43:45.217Z,19.23
2019-01-18T15:46:11.088Z,19.47
2019-01-18T15:48:37.428Z,13.63
2019-01-18T15:51:03.287Z,13.97
2019-01-18T15:53:29.187Z,12.77
2019-01-18T15:55:55.067Z,13.90
2019-01-18T15:58:20.943Z,12.23
2019-01-18T16:00:46.842Z,11.57
2019-01-18T16:03:16.015Z,9.63
2019-01-18T16:05:40.494Z,7.53
2019-01-18T16:08:06.465Z,8.00
2019-01-18T16:10:32.952Z,8.00
2019-01-18T16:12:58.865Z,5.90
2019-01-18T16:15:31.740Z,9.20
2019-01-18T16:17:57.583Z,9.90
2019-01-18T16:20:23.856Z,4.20
2019-01-18T16:22:49.847Z,5.87
2019-01-18T16:25:21.565Z,4.40
2019-01-18T16:27:47.590Z,6.27
2019-01-18T16:30:15.902Z,6.00
2019-01-18T16:32:41.750Z,7.03
2019-01-18T16:35:10.481Z,6.87
2019-01-18T16:37:37.225Z,8.37
2019-01-18T16:40:06.898Z,8.53
2019-01-18T16:42:33.240Z,7.13
2019-01-18T16:44:59.124Z,7.10
2019-01-18T16:47:25.014Z,6.60
2019-01-18T16:49:50.872Z,6.03
2019-01-18T16:52:16.767Z,6.47
2019-01-18T16:54:42.609Z,6.57
2019-01-18T16:57:08.496Z,6.43
2019-01-18T16:59:34.795Z,7.57
2019-01-18T17:02:00.682Z,5.43
2019-01-18T17:04:26.545Z,8.77
2019-01-18T17:06:52.425Z,4.77
2019-01-18T17:09:18.292Z,5.90
2019-01-18T17:11:44.179Z,4.60
2019-01-18T17:14:10.135Z,9.47
2019-01-18T17:16:36.031Z,4.60
2019-01-18T17:19:01.926Z,6.10
2019-01-18T17:21:27.807Z,4.40
2019-01-18T17:23:53.663Z,4.80
2019-01-18T17:26:19.536Z,6.63
2019-01-18T17:28:45.403Z,6.67
2019-01-18T17:31:11.292Z,5.20
2019-01-18T17:33:38.560Z,5.70
2019-01-18T17:36:16.557Z,5.27
2019-01-18T17:38:47.491Z,7.73
2019-01-18T17:41:41.470Z,6.40
2019-01-18T17:44:31.269Z,8.13
2019-01-18T17:47:34.521Z,6.83
2019-01-18T17:50:30.357Z,6.20
2019-01-18T17:53:30.678Z,5.80
2019-01-18T17:56:03.220Z,8.77
2019-01-18T17:58:53.959Z,10.33
2019-01-18T18:01:23.665Z,5.87
2019-01-18T18:03:59.160Z,10.93
2019-01-18T18:06:45.582Z,6.77
2019-01-18T18:09:18.256Z,8.60
2019-01-18T18:12:02.872Z,5.97
2019-01-18T18:14:42.261Z,8.13
2019-01-18T18:17:14.714Z,6.80
2019-01-18T18:19:53.207Z,7.53
2019-01-18T18:22:34.637Z,7.00
2019-01-18T18:25:39.558Z,9.20
2019-01-18T18:28:44.220Z,6.73
2019-01-18T18:31:16.894Z,9.87
2019-01-18T18:34:12.568Z,9.93
2019-01-18T18:36:55.116Z,8.00
2019-01-18T18:39:28.535Z,8.20
2019-01-18T18:42:14.742Z,9.63
2019-01-18T18:44:44.418Z,9.17
2019-01-18T18:47:17.046Z,10.90
2019-01-18T18:49:52.950Z,7.03
2019-01-18T18:52:29.527Z,9.63
2019-01-18T18:55:14.427Z,23.97
2019-01-18T18:58:04.791Z,36.70
2019-01-18T19:00:49.934Z,10.80
2019-01-18T19:03:19.611Z,10.00
2019-01-18T19:06:10.228Z,9.47
2019-01-18T19:08:57.556Z,10.10
2019-01-18T19:11:33.195Z,10.73
2019-01-18T19:14:14.996Z,15.43
2019-01-18T19:17:08.408Z,17.93
2019-01-18T19:20:05.743Z,23.97
2019-01-18T19:22:59.225Z,16.10
2019-01-18T19:25:34.846Z,15.07
2019-01-18T19:28:22.924Z,16.13
2019-01-18T19:31:01.701Z,15.67
2019-01-18T19:33:34.424Z,15.67
2019-01-18T19:36:13.272Z,17.43
2019-01-18T19:38:58.413Z,20.80
2019-01-18T19:41:34.760Z,19.40
2019-01-18T19:44:04.451Z,19.47
2019-01-18T19:46:49.206Z,22.67
2019-01-18T19:49:38.900Z,20.77
2019-01-18T19:52:09.469Z,20.97
2019-01-18T19:54:51.436Z,26.07
2019-01-18T19:57:36.297Z,22.40
2019-01-18T20:00:22.887Z,27.73
2019-01-18T20:02:55.295Z,24.30
2019-01-18T20:05:37.214Z,24.23
2019-01-18T20:08:15.784Z,24.60
2019-01-18T20:10:57.741Z,21.27
2019-01-18T20:13:36.013Z,20.90
2019-01-18T20:16:25.423Z,22.63
2019-01-18T20:19:13.626Z,22.70
2019-01-18T20:21:52.484Z,21.83
2019-01-18T20:24:40.583Z,20.67
2019-01-18T20:27:25.678Z,19.10
2019-01-18T20:30:04.187Z,16.67
2019-01-18T20:32:51.553Z,17.97
2019-01-18T20:35:33.431Z,17.20
2019-01-18T20:38:23.646Z,17.07
2019-01-18T20:40:54.295Z,20.17
2019-01-18T20:43:27.848Z,19.40
2019-01-18T20:46:26.423Z,17.83
2019-01-18T20:49:15.992Z,19.13
2019-01-18T20:51:45.689Z,16.63
2019-01-18T20:54:32.211Z,19.47
2019-01-18T20:57:01.901Z,20.70
2019-01-18T20:59:37.571Z,24.47
2019-01-18T21:02:13.435Z,20.87
2019-01-18T21:04:55.203Z,23.30
2019-01-18T21:07:41.762Z,26.73
2019-01-18T21:10:26.006Z,25.20
2019-01-18T21:13:16.336Z,26.53
2019-01-18T21:16:07.179Z,24.23
2019-01-18T21:18:51.920Z,22.53
2019-01-18T21:21:43.960Z,25.87
2019-01-18T21:24:28.811Z,24.13
2019-01-18T21:26:58.630Z,28.47
2019-01-18T21:29:34.545Z,26.30
2019-01-18T21:32:19.616Z,32.57
2019-01-18T21:34:49.326Z,31.50
2019-01-18T21:37:35.578Z,32.30
2019-01-18T21:40:23.774Z,33.23
2019-01-18T21:43:16.583Z,38.17
2019-01-18T21:45:55.958Z,36.10
2019-01-18T21:48:28.146Z,34.33
2019-01-18T21:51:02.380Z,32.70
2019-01-18T21:53:41.324Z,33.00
2019-01-18T21:56:35.672Z,36.37
2019-01-18T21:59:25.009Z,30.17
2019-01-18T22:02:00.749Z,30.53
2019-01-18T22:04:31.071Z,25.73
2019-01-18T22:07:06.746Z,27.20
2019-01-18T22:09:39.661Z,29.67
2019-01-18T22:12:15.362Z,30.67
2019-01-18T22:15:10.983Z,29.03
2019-01-18T22:17:47.006Z,33.83
2019-01-18T22:20:34.440Z,30.17
2019-01-18T22:23:13.323Z,31.17
2019-01-18T22:25:45.831Z,33.57
2019-01-18T22:28:43.225Z,30.57
2019-01-18T22:31:31.305Z,32.60
2019-01-18T22:34:04.078Z,30.67
2019-01-18T22:36:42.835Z,32.27
2019-01-18T22:39:33.299Z,31.27
2019-01-18T22:42:19.332Z,30.80
2019-01-18T22:44:49.689Z,31.00
2019-01-18T22:47:25.707Z,29.87
2019-01-18T22:49:55.409Z,26.47
2019-01-18T22:52:31.226Z,26.67
2019-01-18T22:55:17.156Z,27.27
2019-01-18T22:57:46.891Z,25.50
2019-01-18T23:00:55.477Z,30.27
2019-01-18T23:03:27.886Z,27.43
2019-01-18T23:06:14.509Z,28.67
2019-01-18T23:09:08.499Z,28.00
2019-01-18T23:11:47.295Z,28.27
2019-01-18T23:14:33.590Z,29.20
2019-01-18T23:17:15.768Z,31.40
2019-01-18T23:19:48.233Z,32.60
2019-01-18T23:22:26.598Z,29.90
2019-01-18T23:24:59.005Z,32.43
2019-01-18T23:27:31.318Z,34.97
2019-01-18T23:30:10.004Z,36.47
2019-01-18T23:33:15.879Z,37.30
2019-01-18T23:35:51.060Z,33.93
2019-01-18T23:38:52.377Z,32.87
2019-01-18T23:41:27.836Z,33.13
2019-01-18T23:44:00.321Z,30.90
2019-01-18T23:46:40.336Z,30.07
2019-01-18T23:49:16.444Z,30.00
2019-01-18T23:51:52.201Z,28.90
2019-01-18T23:54:24.657Z,29.57
2019-01-18T23:57:10.696Z,27.53
2019-01-18T23:59:46.642Z,30.23
